Pickett, WI (54964)

9:31 AM CDT on April 29, 2017 (GMT -0500)
Vineyard | | Change Station
Active Advisory: Flood Watch Active Notice: Flood Watch

Elev 860 ft 43.91 °N, 88.84 °W | Updated 8 seconds ago

Mostly Cloudy
Mostly Cloudy
41.4 °F
Feels Like 35 °F
N
10.7
Wind Variable Wind from NE
Gusts 12.3 mph

Today
High -- | Low -- °F
--% Chance of Precip.
Yesterday
High -- | Low -- °F
Precip. -- in
Pressure 30.28 in
Visibility 10.0 miles
Clouds Mostly Cloudy 2500 ft
Windchill 35 °F
Dew Point 27 °F
Humidity 56%
Rainfall 0.00 in
Snow Depth Not available.
5:49 AM 7:55 PM
Waxing Crescent, 14% visible
METAR KOSH 291353Z 05012G18KT 10SM BKN025 04/M02 A3026 RMK AO2 SLP254 T00441017 $
Pressure 30.28 in
Visibility 10.0 miles
Clouds Mostly Cloudy 2500 ft
Windchill 35 °F
Dew Point 27 °F
Humidity 56%
Rainfall 0.00 in
Snow Depth Not available.
5:49 AM 7:55 PM
Waxing Crescent, 14% visible
METAR KOSH 291353Z 05012G18KT 10SM BKN025 04/M02 A3026 RMK AO2 SLP254 T00441017 $

Get Your Daily Forecast Email!

Thanks for signing up!

Be on the lookout for a verification email in your inbox.

You'll start receiving severe weather alerts in your inbox..

×

10-Day Weather Forecast

Almanac

Astronomy

Apr. 29, 2017 Rise Set
Actual Time
Civil Twilight
Nautical Twilight
Astronomical Twilight
Moon
Length of Visible Light
Length of Day
Tomorrow will be .
, % of the Moon is Illuminated

Today's Extremes

State Highs State Lows

Community

WunderPhotos

WunderBlog® & News

Nearby

Air Quality

  Air Quality AQ Index Pollutant
Not available.

Snow Depth

Station Depth Elevation

Earthquake Activity

City Distance Mag. Time & Date
Minimum magnitude displayed is 2.5.

Coastal Water Temperatures

Place Temperature

Stations

Nearby Weather Stations

Station Location Temp. Windchill Dew Point Humidity Wind Precip. Elev Updated Type
                   

Watches & Warnings

Flood Watch
Issued: 4:47 AM CDT Apr. 28, 2017 – National Weather Service

The Flood Watch continues for
the Fox River near Berlin
* from late tonight to Wednesday morning.
* At 3:15 am Friday the stage was 12.9 feet.
* Minor flooding is possible.
* Flood stage is 13.0 feet.
* Forecast... flood stage may be reached by after midnight tomorrow.


Lat... Lon 4398 8899 4398 8888 4391 8888 4389 8901
      4395 8911 4396 8908